createdAt,value
2023-05-14T00:00:08.325Z,100656.16
2023-05-14T00:00:21.750Z,100657.19
2023-05-14T00:00:33.612Z,100658.00
2023-05-14T00:00:45.377Z,100658.00
2023-05-14T00:00:57.115Z,100657.00
2023-05-14T00:01:08.797Z,100655.31
2023-05-14T00:01:20.559Z,100658.00
2023-05-14T00:01:32.227Z,100658.00
2023-05-14T00:01:43.940Z,100658.81
2023-05-14T00:01:55.612Z,100655.31
2023-05-14T00:02:07.371Z,100655.31
2023-05-14T00:02:19.185Z,100655.31
2023-05-14T00:02:31.060Z,100651.00
2023-05-14T00:02:42.978Z,100653.47
2023-05-14T00:02:55.053Z,100648.13
2023-05-14T00:03:07.106Z,100649.16
2023-05-14T00:03:19.046Z,100648.97
2023-05-14T00:03:30.999Z,100648.97
2023-05-14T00:03:42.854Z,100648.13
2023-05-14T00:03:54.677Z,100648.13
2023-05-14T00:04:06.540Z,100639.28
2023-05-14T00:04:18.350Z,100647.31
2023-05-14T00:04:30.155Z,100651.00
2023-05-14T00:04:41.943Z,100645.44
2023-05-14T00:04:53.608Z,100641.94
2023-05-14T00:05:06.075Z,100643.81
2023-05-14T00:05:17.740Z,100641.13
2023-05-14T00:05:29.412Z,100644.84
2023-05-14T00:05:41.186Z,100644.84
2023-05-14T00:05:52.832Z,100642.16
2023-05-14T00:06:04.998Z,100634.13
2023-05-14T00:06:16.690Z,100649.34
2023-05-14T00:06:28.420Z,100650.19
2023-05-14T00:06:40.150Z,100641.31
2023-05-14T00:06:51.824Z,100642.97
2023-05-14T00:07:03.595Z,100649.34
2023-05-14T00:07:15.338Z,100650.19
2023-05-14T00:07:27.038Z,100652.84
2023-05-14T00:07:38.716Z,100643.97
2023-05-14T00:07:50.388Z,100650.19
2023-05-14T00:08:02.532Z,100646.88
2023-05-14T00:08:14.236Z,100642.34
2023-05-14T00:08:25.938Z,100638.84
2023-05-14T00:08:37.676Z,100647.69
2023-05-14T00:08:49.424Z,100649.53
2023-05-14T00:09:01.124Z,100649.34
2023-05-14T00:09:13.192Z,100642.16
2023-05-14T00:09:24.969Z,100642.34
2023-05-14T00:09:36.669Z,100642.16
2023-05-14T00:09:48.366Z,100640.66
2023-05-14T00:10:00.385Z,100642.34
2023-05-14T00:10:12.063Z,100651.19
2023-05-14T00:10:23.949Z,100638.00
2023-05-14T00:10:35.934Z,100640.66
2023-05-14T00:10:47.652Z,100648.69
2023-05-14T00:10:59.420Z,100649.53
2023-05-14T00:11:11.103Z,100651.34
2023-05-14T00:11:22.837Z,100643.16
2023-05-14T00:11:34.526Z,100638.00
2023-05-14T00:11:46.164Z,100646.88
2023-05-14T00:11:57.908Z,100639.00
2023-05-14T00:12:09.871Z,100637.16
2023-05-14T00:12:21.576Z,100636.34
2023-05-14T00:12:33.371Z,100635.53
2023-05-14T00:12:45.078Z,100638.19
2023-05-14T00:12:56.792Z,100644.53
2023-05-14T00:13:08.757Z,100641.03
2023-05-14T00:13:20.434Z,100644.53
2023-05-14T00:13:32.138Z,100639.41
2023-05-14T00:13:43.847Z,100640.22
2023-05-14T00:13:55.554Z,100644.53
2023-05-14T00:14:07.249Z,100647.22
2023-05-14T00:14:20.269Z,100643.53
2023-05-14T00:14:31.967Z,100647.03
2023-05-14T00:14:43.641Z,100641.88
2023-05-14T00:14:55.460Z,100638.19
2023-05-14T00:15:08.636Z,100643.72
2023-05-14T00:15:20.352Z,100646.22
2023-05-14T00:15:34.076Z,100636.50
2023-05-14T00:15:46.220Z,100645.56
2023-05-14T00:15:57.970Z,100641.03
2023-05-14T00:16:09.803Z,100635.69
2023-05-14T00:16:21.617Z,100639.41
2023-05-14T00:16:33.410Z,100640.41
2023-05-14T00:16:45.150Z,100634.03
2023-05-14T00:16:56.852Z,100634.03
2023-05-14T00:17:08.522Z,100634.88
2023-05-14T00:17:20.295Z,100634.88
2023-05-14T00:17:32.006Z,100639.41
2023-05-14T00:17:43.819Z,100643.06
2023-05-14T00:17:55.639Z,100644.91
2023-05-14T00:18:07.412Z,100642.06
2023-05-14T00:18:19.310Z,100635.88
2023-05-14T00:18:31.162Z,100643.88
2023-05-14T00:18:42.944Z,100640.41
2023-05-14T00:18:54.694Z,100639.41
2023-05-14T00:19:06.511Z,100640.41
2023-05-14T00:19:18.391Z,100630.72
2023-05-14T00:19:30.099Z,100638.75
2023-05-14T00:19:41.880Z,100636.91
2023-05-14T00:19:53.573Z,100636.06
2023-05-14T00:20:06.354Z,100630.72
2023-05-14T00:20:18.142Z,100642.25
2023-05-14T00:20:30.235Z,100642.25
2023-05-14T00:20:41.931Z,100632.53
2023-05-14T00:20:53.689Z,100629.88
2023-05-14T00:21:05.340Z,100637.91
2023-05-14T00:21:16.976Z,100640.56
2023-05-14T00:21:28.628Z,100644.91
2023-05-14T00:21:40.454Z,100643.25
2023-05-14T00:21:52.228Z,100638.94
2023-05-14T00:22:03.951Z,100638.75
2023-05-14T00:22:15.625Z,100637.91
2023-05-14T00:22:27.334Z,100629.06
2023-05-14T00:22:39.400Z,100628.22
2023-05-14T00:22:51.070Z,100638.94
2023-05-14T00:23:02.752Z,100641.59
2023-05-14T00:23:14.386Z,100638.09
2023-05-14T00:23:26.104Z,100643.25
2023-05-14T00:23:37.746Z,100637.28
2023-05-14T00:23:49.474Z,100635.44
2023-05-14T00:24:01.182Z,100638.09
2023-05-14T00:24:12.854Z,100636.44
2023-05-14T00:24:24.551Z,100636.44
2023-05-14T00:24:36.689Z,100638.94
2023-05-14T00:24:48.355Z,100628.22
2023-05-14T00:24:59.966Z,100639.09
2023-05-14T00:25:11.633Z,100637.28
2023-05-14T00:25:23.530Z,100637.28
2023-05-14T00:25:36.606Z,100626.38
2023-05-14T00:25:48.269Z,100637.06
2023-05-14T00:26:00.073Z,100636.25
2023-05-14T00:26:11.777Z,100632.75
2023-05-14T00:26:23.769Z,100639.09
2023-05-14T00:26:35.614Z,100638.09
2023-05-14T00:26:47.338Z,100631.94
2023-05-14T00:26:59.045Z,100639.09
2023-05-14T00:27:10.705Z,100631.06
2023-05-14T00:27:22.393Z,100637.44
2023-05-14T00:27:34.120Z,100634.59
2023-05-14T00:27:45.798Z,100637.44
2023-05-14T00:27:57.547Z,100632.94
2023-05-14T00:28:09.185Z,100633.75
2023-05-14T00:28:21.172Z,100633.75
2023-05-14T00:28:33.545Z,100631.06
2023-05-14T00:28:45.226Z,100638.28
2023-05-14T00:28:56.898Z,100635.44
2023-05-14T00:29:08.601Z,100633.75
2023-05-14T00:29:21.671Z,100637.28
2023-05-14T00:29:33.340Z,100632.09
2023-05-14T00:29:45.024Z,100629.44
2023-05-14T00:29:56.752Z,100632.09
2023-05-14T00:30:09.188Z,100632.28
2023-05-14T00:30:20.975Z,100631.28
2023-05-14T00:30:32.825Z,100642.81
2023-05-14T00:30:44.624Z,100632.09
2023-05-14T00:30:56.442Z,100637.44
2023-05-14T00:31:08.233Z,100638.28
2023-05-14T00:31:19.986Z,100632.09
2023-05-14T00:31:31.790Z,100634.78
2023-05-14T00:31:43.655Z,100631.28
2023-05-14T00:31:55.433Z,100631.28
2023-05-14T00:32:07.983Z,100633.97
2023-05-14T00:32:19.725Z,100635.59
2023-05-14T00:32:31.654Z,100634.13
2023-05-14T00:32:43.443Z,100633.09
2023-05-14T00:32:55.242Z,100632.28
2023-05-14T00:33:07.155Z,100632.28
2023-05-14T00:33:18.962Z,100633.31
2023-05-14T00:33:30.778Z,100632.28
2023-05-14T00:33:42.457Z,100628.78
2023-05-14T00:33:54.156Z,100636.81
2023-05-14T00:34:05.892Z,100633.31
2023-05-14T00:34:17.640Z,100631.47
2023-05-14T00:34:29.361Z,100633.09
2023-05-14T00:34:41.669Z,100634.13
2023-05-14T00:34:53.391Z,100635.78
2023-05-14T00:35:05.891Z,100634.13
2023-05-14T00:35:17.635Z,100629.59
2023-05-14T00:35:29.365Z,100637.84
2023-05-14T00:35:41.051Z,100628.78
2023-05-14T00:35:52.777Z,100633.31
2023-05-14T00:36:04.720Z,100630.44
2023-05-14T00:36:16.543Z,100628.78
2023-05-14T00:36:28.277Z,100627.13
2023-05-14T00:36:40.159Z,100628.97
2023-05-14T00:36:51.895Z,100628.78
2023-05-14T00:37:03.632Z,100626.94
2023-05-14T00:37:15.339Z,100629.59
2023-05-14T00:37:27.088Z,100628.78
2023-05-14T00:37:39.056Z,100628.78
2023-05-14T00:37:50.733Z,100626.09
2023-05-14T00:38:03.058Z,100626.09
2023-05-14T00:38:14.920Z,100626.09
2023-05-14T00:38:26.651Z,100633.09
2023-05-14T00:38:38.373Z,100630.44
2023-05-14T00:38:50.140Z,100629.81
2023-05-14T00:39:01.873Z,100637.63
2023-05-14T00:39:13.606Z,100630.81
2023-05-14T00:39:25.331Z,100634.31
2023-05-14T00:39:37.035Z,100634.50
2023-05-14T00:39:48.772Z,100637.84
2023-05-14T00:40:00.441Z,100631.84
2023-05-14T00:40:12.852Z,100629.16
2023-05-14T00:40:26.481Z,100623.81
2023-05-14T00:40:38.344Z,100630.00
2023-05-14T00:40:50.182Z,100624.63
2023-05-14T00:41:01.890Z,100625.47
2023-05-14T00:41:13.573Z,100625.47
2023-05-14T00:41:26.258Z,100624.63
2023-05-14T00:41:38.111Z,100627.31
2023-05-14T00:41:49.850Z,100628.13
2023-05-14T00:42:01.728Z,100626.50
2023-05-14T00:42:13.399Z,100630.81
2023-05-14T00:42:25.129Z,100624.63
2023-05-14T00:42:37.055Z,100633.47
2023-05-14T00:42:48.768Z,100628.31
2023-05-14T00:43:00.487Z,100630.81
2023-05-14T00:43:12.200Z,100628.31
2023-05-14T00:43:24.218Z,100627.50
2023-05-14T00:43:35.908Z,100630.00
2023-05-14T00:43:47.683Z,100626.50
2023-05-14T00:43:59.533Z,100626.50
2023-05-14T00:44:11.232Z,100629.16
2023-05-14T00:44:24.299Z,100622.97
2023-05-14T00:44:36.056Z,100625.63
2023-05-14T00:44:47.846Z,100630.16
2023-05-14T00:44:59.587Z,100625.63
2023-05-14T00:45:11.511Z,100628.31
2023-05-14T00:45:23.218Z,100626.50
2023-05-14T00:45:35.264Z,100623.81
2023-05-14T00:45:48.334Z,100623.81
2023-05-14T00:46:00.599Z,100622.16
2023-05-14T00:46:12.421Z,100629.34
2023-05-14T00:46:24.189Z,100627.31
2023-05-14T00:46:36.058Z,100623.81
2023-05-14T00:46:48.012Z,100621.16
2023-05-14T00:47:00.115Z,100620.28
2023-05-14T00:47:12.859Z,100614.13
2023-05-14T00:47:24.698Z,100619.47
2023-05-14T00:47:37.613Z,100621.16
2023-05-14T00:47:49.539Z,100622.97
2023-05-14T00:48:01.714Z,100612.47
2023-05-14T00:48:14.044Z,100622.97
2023-05-14T00:48:25.945Z,100620.28
2023-05-14T00:48:37.837Z,100615.78
2023-05-14T00:48:49.583Z,100622.97
2023-05-14T00:49:01.601Z,100622.16
2023-05-14T00:49:13.499Z,100615.78
2023-05-14T00:49:25.598Z,100625.47
2023-05-14T00:49:37.424Z,100621.97
2023-05-14T00:49:49.209Z,100614.94
2023-05-14T00:50:01.442Z,100625.47
2023-05-14T00:50:14.801Z,100612.09
2023-05-14T00:50:26.985Z,100618.25
2023-05-14T00:50:38.997Z,100620.13
2023-05-14T00:50:51.454Z,100617.44
2023-05-14T00:51:03.471Z,100620.13
2023-05-14T00:51:15.890Z,100615.59
2023-05-14T00:51:27.767Z,100617.28
2023-05-14T00:51:40.371Z,100615.59
2023-05-14T00:51:52.821Z,100612.09
2023-05-14T00:52:05.096Z,100615.59
2023-05-14T00:52:17.761Z,100612.09
2023-05-14T00:52:29.676Z,100626.28
2023-05-14T00:52:42.066Z,100625.28
2023-05-14T00:52:53.828Z,100617.44
2023-05-14T00:53:05.597Z,100620.28
2023-05-14T00:53:18.635Z,100616.44
2023-05-14T00:53:31.377Z,100622.78
2023-05-14T00:53:43.211Z,100618.25
2023-05-14T00:53:55.364Z,100613.94
2023-05-14T00:54:07.952Z,100612.28
2023-05-14T00:54:20.762Z,100614.78
2023-05-14T00:54:32.969Z,100617.44
2023-05-14T00:54:46.496Z,100618.25
2023-05-14T00:54:59.120Z,100615.78
2023-05-14T00:55:15.023Z,100617.63
2023-05-14T00:55:27.548Z,100610.63
2023-05-14T00:55:59.642Z,100612.09
2023-05-14T00:56:11.514Z,100615.59
2023-05-14T00:56:23.731Z,100618.25
2023-05-14T00:56:35.734Z,100612.91
2023-05-14T00:56:48.265Z,100613.94
2023-05-14T00:57:00.838Z,100612.28
2023-05-14T00:57:12.590Z,100607.78
2023-05-14T00:57:24.363Z,100609.59
2023-05-14T00:57:36.865Z,100607.78
2023-05-14T00:57:50.272Z,100610.44
2023-05-14T00:58:04.403Z,100605.09
2023-05-14T00:58:17.320Z,100612.28
2023-05-14T00:58:29.401Z,100607.78
2023-05-14T00:58:41.120Z,100615.78
2023-05-14T00:58:52.843Z,100611.44
2023-05-14T00:59:04.593Z,100608.78
2023-05-14T00:59:16.446Z,100610.63
2023-05-14T00:59:29.798Z,100607.13
2023-05-14T00:59:41.764Z,100616.16
2023-05-14T00:59:53.697Z,100611.66
2023-05-14T01:00:06.885Z,100601.97
2023-05-14T01:00:19.141Z,100613.47
2023-05-14T01:00:30.898Z,100608.97
2023-05-14T01:00:42.710Z,100600.97
2023-05-14T01:00:54.608Z,100600.09
2023-05-14T01:01:06.378Z,100602.78
2023-05-14T01:01:18.203Z,100604.47
2023-05-14T01:01:30.054Z,100604.63
2023-05-14T01:01:42.309Z,100596.63
2023-05-14T01:01:54.384Z,100605.44
2023-05-14T01:02:06.393Z,100598.47
2023-05-14T01:02:18.093Z,100601.13
2023-05-14T01:02:29.929Z,100595.78
2023-05-14T01:02:41.746Z,100604.63
2023-05-14T01:02:53.865Z,100602.13
2023-05-14T01:03:06.279Z,100597.44
2023-05-14T01:03:18.149Z,100601.97
2023-05-14T01:03:30.849Z,100601.13
2023-05-14T01:03:43.376Z,100599.47
2023-05-14T01:03:56.283Z,100605.66
2023-05-14T01:04:10.380Z,100598.47
2023-05-14T01:04:22.219Z,100595.78
2023-05-14T01:04:34.386Z,100596.63
2023-05-14T01:04:46.125Z,100603.63
2023-05-14T01:04:58.126Z,100597.44
2023-05-14T01:05:09.944Z,100599.94
2023-05-14T01:05:25.887Z,100593.75
2023-05-14T01:05:53.645Z,100597.44
2023-05-14T01:06:13.107Z,100596.63
2023-05-14T01:06:35.009Z,100600.09
2023-05-14T01:06:55.135Z,100594.75
2023-05-14T01:07:14.148Z,100603.44
2023-05-14T01:07:33.494Z,100598.28
2023-05-14T01:07:55.104Z,100586.75
2023-05-14T01:08:13.257Z,100600.97
2023-05-14T01:08:36.536Z,100593.75
2023-05-14T01:09:01.399Z,100594.75
2023-05-14T01:09:18.752Z,100594.75
2023-05-14T01:09:42.511Z,100594.75
2023-05-14T01:09:59.054Z,100599.28
2023-05-14T01:10:15.405Z,100591.25
2023-05-14T01:10:32.561Z,100589.63
2023-05-14T01:10:51.112Z,100594.13
2023-05-14T01:11:07.483Z,100593.13
2023-05-14T01:11:22.400Z,100590.44
2023-05-14T01:11:40.268Z,100590.63
2023-05-14T01:11:59.472Z,100592.28
2023-05-14T01:12:17.245Z,100594.97
2023-05-14T01:12:34.451Z,100593.13
2023-05-14T01:12:52.820Z,100595.78
2023-05-14T01:13:11.106Z,100591.25
2023-05-14T01:13:33.801Z,100590.44
2023-05-14T01:13:55.430Z,100591.44
2023-05-14T01:14:17.457Z,100589.63
2023-05-14T01:14:36.510Z,100595.78
2023-05-14T01:14:55.696Z,100585.91
2023-05-14T01:15:12.052Z,100592.09
2023-05-14T01:15:26.619Z,100589.63
2023-05-14T01:15:40.010Z,100592.94
2023-05-14T01:15:54.163Z,100589.41
2023-05-14T01:16:12.168Z,100587.78
2023-05-14T01:16:27.372Z,100583.06
2023-05-14T01:16:40.740Z,100592.94
2023-05-14T01:16:56.670Z,100588.41
2023-05-14T01:17:11.749Z,100591.91
2023-05-14T01:17:27.392Z,100589.41
2023-05-14T01:17:42.898Z,100590.25
2023-05-14T01:17:59.114Z,100581.59
2023-05-14T01:18:13.905Z,100592.09
2023-05-14T01:18:28.073Z,100587.59
2023-05-14T01:18:43.014Z,100592.09
2023-05-14T01:18:56.984Z,100584.91
2023-05-14T01:19:21.305Z,100588.41
2023-05-14T01:19:37.914Z,100581.88
2023-05-14T01:19:51.321Z,100584.72
2023-05-14T01:20:04.648Z,100582.84
2023-05-14T01:20:17.415Z,100583.88
2023-05-14T01:20:29.188Z,100586.75
2023-05-14T01:20:42.509Z,100586.75
2023-05-14T01:20:54.475Z,100578.06
2023-05-14T01:21:18.047Z,100586.56
2023-05-14T01:21:38.007Z,100583.41
2023-05-14T01:21:49.751Z,100590.25
2023-05-14T01:22:01.788Z,100584.06
2023-05-14T01:22:13.626Z,100591.25
2023-05-14T01:22:25.341Z,100584.28
2023-05-14T01:22:37.287Z,100588.59
2023-05-14T01:22:49.070Z,100590.44
2023-05-14T01:23:00.862Z,100584.06
2023-05-14T01:23:12.682Z,100591.25
2023-05-14T01:23:24.391Z,100592.09
2023-05-14T01:23:36.741Z,100590.44
2023-05-14T01:23:48.515Z,100587.59
2023-05-14T01:24:00.621Z,100583.25
2023-05-14T01:24:12.426Z,100577.25
2023-05-14T01:24:24.106Z,100581.59
2023-05-14T01:24:36.002Z,100576.25
2023-05-14T01:24:47.705Z,100581.59
2023-05-14T01:24:59.464Z,100585.09
2023-05-14T01:25:11.236Z,100586.09
2023-05-14T01:25:23.183Z,100578.06
2023-05-14T01:25:34.917Z,100580.75
2023-05-14T01:25:46.832Z,100573.75
2023-05-14T01:25:58.610Z,100576.25
2023-05-14T01:26:10.352Z,100584.44
2023-05-14T01:26:22.073Z,100584.44
2023-05-14T01:26:34.044Z,100579.09
2023-05-14T01:26:45.823Z,100577.25
2023-05-14T01:27:03.829Z,100585.09
2023-05-14T01:27:21.914Z,100585.91
2023-05-14T01:27:38.674Z,100579.75
2023-05-14T01:27:58.127Z,100576.25
2023-05-14T01:28:15.644Z,100576.25
2023-05-14T01:28:32.704Z,100573.75
2023-05-14T01:28:45.277Z,100570.25
2023-05-14T01:29:03.917Z,100574.56
2023-05-14T01:29:21.355Z,100574.97
2023-05-14T01:29:36.883Z,100572.47
2023-05-14T01:29:53.473Z,100574.13
2023-05-14T01:30:19.254Z,100579.47
2023-05-14T01:30:35.665Z,100575.97
2023-05-14T01:30:55.712Z,100587.50
2023-05-14T01:31:12.410Z,100572.47
2023-05-14T01:31:26.432Z,100578.19
2023-05-14T01:31:41.543Z,100573.50
2023-05-14T01:31:55.738Z,100576.16
2023-05-14T01:32:09.756Z,100578.84
2023-05-14T01:32:23.006Z,100575.13
2023-05-14T01:32:35.888Z,100572.63
2023-05-14T01:32:50.981Z,100576.16
2023-05-14T01:33:06.173Z,100576.16
2023-05-14T01:33:19.658Z,100575.13
2023-05-14T01:33:35.064Z,100568.31
2023-05-14T01:33:48.353Z,100576.34
2023-05-14T01:34:02.042Z,100578.84
2023-05-14T01:34:15.754Z,100570.81
2023-05-14T01:34:29.762Z,100568.16
2023-05-14T01:34:41.963Z,100577.97
2023-05-14T01:34:57.086Z,100569.34
2023-05-14T01:35:09.975Z,100573.66
2023-05-14T01:35:23.675Z,100573.66
2023-05-14T01:35:35.883Z,100568.31
2023-05-14T01:35:48.843Z,100562.16
2023-05-14T01:36:01.044Z,100576.34
2023-05-14T01:36:13.309Z,100577.38
2023-05-14T01:36:25.456Z,100574.88
2023-05-14T01:36:40.254Z,100563.34
2023-05-14T01:36:53.039Z,100565.16
2023-05-14T01:37:06.394Z,100564.34
2023-05-14T01:37:18.360Z,100572.19
2023-05-14T01:37:31.054Z,100574.03
2023-05-14T01:37:44.240Z,100569.69
2023-05-14T01:38:00.870Z,100560.84
2023-05-14T01:38:15.878Z,100570.53
2023-05-14T01:38:28.349Z,100563.34
2023-05-14T01:38:40.637Z,100559.22
2023-05-14T01:38:53.682Z,100573.41
2023-05-14T01:39:06.684Z,100561.25
2023-05-14T01:39:19.584Z,100567.22
2023-05-14T01:39:32.875Z,100564.72
2023-05-14T01:39:45.752Z,100562.88
2023-05-14T01:39:59.059Z,100567.22
2023-05-14T01:40:11.369Z,100565.56
2023-05-14T01:40:23.578Z,100563.91
2023-05-14T01:40:36.632Z,100564.09
2023-05-14T01:40:50.413Z,100564.91
2023-05-14T01:41:03.250Z,100567.59
2023-05-14T01:41:16.433Z,100565.13
2023-05-14T01:41:29.568Z,100565.13
2023-05-14T01:41:42.433Z,100563.25
2023-05-14T01:41:55.059Z,100563.25
2023-05-14T01:42:07.820Z,100565.94
2023-05-14T01:42:19.931Z,100560.59
2023-05-14T01:42:32.978Z,100567.78
2023-05-14T01:42:45.631Z,100572.28
2023-05-14T01:42:57.684Z,100556.44
2023-05-14T01:43:09.875Z,100566.28
2023-05-14T01:43:22.938Z,100561.78
2023-05-14T01:43:35.471Z,100564.25
2023-05-14T01:43:47.987Z,100564.25
2023-05-14T01:43:59.803Z,100558.91
2023-05-14T01:44:12.666Z,100562.63
2023-05-14T01:44:24.915Z,100561.78
2023-05-14T01:44:36.649Z,100555.59
2023-05-14T01:44:48.387Z,100553.78
2023-05-14T01:45:00.651Z,100560.94
2023-05-14T01:45:12.620Z,100560.94
2023-05-14T01:45:24.653Z,100559.13
2023-05-14T01:45:37.133Z,100553.94
2023-05-14T01:45:49.028Z,100552.91
2023-05-14T01:46:00.836Z,100560.31
2023-05-14T01:46:12.998Z,100558.25
2023-05-14T01:46:24.835Z,100554.78
2023-05-14T01:46:36.710Z,100551.28
2023-05-14T01:46:48.514Z,100555.81
2023-05-14T01:47:00.311Z,100561.16
2023-05-14T01:47:11.992Z,100551.28
2023-05-14T01:47:23.684Z,100556.63
2023-05-14T01:47:35.400Z,100544.47
2023-05-14T01:47:47.155Z,100553.31
2023-05-14T01:47:59.056Z,100546.31
2023-05-14T01:48:10.962Z,100547.13
2023-05-14T01:48:22.922Z,100550.47
2023-05-14T01:48:34.610Z,100554.97
2023-05-14T01:48:46.385Z,100546.97
2023-05-14T01:48:58.096Z,100539.94
2023-05-14T01:49:09.829Z,100542.63
2023-05-14T01:49:21.540Z,100541.63
2023-05-14T01:49:33.296Z,100546.09
2023-05-14T01:49:44.988Z,100541.63
2023-05-14T01:49:56.727Z,100542.44
2023-05-14T01:50:09.105Z,100545.13
2023-05-14T01:50:21.207Z,100537.09
2023-05-14T01:50:33.090Z,100538.09
2023-05-14T01:50:44.811Z,100536.44
2023-05-14T01:50:56.548Z,100539.13
2023-05-14T01:51:08.304Z,100538.31
2023-05-14T01:51:19.985Z,100534.59
2023-05-14T01:51:31.863Z,100537.44
2023-05-14T01:51:44.975Z,100531.94
2023-05-14T01:51:56.671Z,100540.75
2023-05-14T01:52:08.768Z,100533.94
2023-05-14T01:52:20.459Z,100541.78
2023-05-14T01:52:32.157Z,100526.56
2023-05-14T01:52:43.980Z,100531.09
2023-05-14T01:52:55.676Z,100530.06
2023-05-14T01:53:07.484Z,100526.56
2023-05-14T01:53:19.132Z,100534.41
2023-05-14T01:53:30.914Z,100533.59
2023-05-14T01:53:42.729Z,100533.59
2023-05-14T01:53:54.427Z,100536.06
2023-05-14T01:54:06.108Z,100533.59
2023-05-14T01:54:17.798Z,100530.72
2023-05-14T01:54:30.144Z,100534.22
2023-05-14T01:54:41.854Z,100528.25
2023-05-14T01:54:53.622Z,100540.41
2023-05-14T01:55:06.517Z,100536.06
2023-05-14T01:55:18.281Z,100535.06
2023-05-14T01:55:29.998Z,100537.75
2023-05-14T01:55:41.678Z,100536.06
2023-05-14T01:55:53.384Z,100534.22
2023-05-14T01:56:05.682Z,100537.91
2023-05-14T01:56:18.476Z,100534.22
2023-05-14T01:56:30.376Z,100533.22
2023-05-14T01:56:42.145Z,100541.22
2023-05-14T01:56:54.010Z,100538.56
2023-05-14T01:57:05.738Z,100526.03
2023-05-14T01:57:17.417Z,100541.06
2023-05-14T01:57:29.145Z,100533.88
2023-05-14T01:57:40.902Z,100532.84
2023-05-14T01:57:52.884Z,100537.34
2023-05-14T01:58:04.662Z,100532.00
2023-05-14T01:58:16.507Z,100524.81
2023-05-14T01:58:28.690Z,100524.81
2023-05-14T01:58:40.422Z,100523.81
2023-05-14T01:58:52.637Z,100519.69
2023-05-14T01:59:04.342Z,100530.16
2023-05-14T01:59:16.076Z,100526.19
2023-05-14T01:59:27.776Z,100526.66
2023-05-14T01:59:39.532Z,100530.97
2023-05-14T01:59:51.229Z,100521.31
2023-05-14T02:00:03.580Z,100532.00
2023-05-14T02:00:25.968Z,100523.81
2023-05-14T02:00:37.798Z,100530.97
2023-05-14T02:00:49.457Z,100523.81
2023-05-14T02:01:01.218Z,100520.28
2023-05-14T02:01:13.035Z,100522.16
2023-05-14T02:01:24.822Z,100528.13
2023-05-14T02:01:36.529Z,100528.31
2023-05-14T02:01:48.379Z,100526.50
2023-05-14T02:02:00.210Z,100524.81
2023-05-14T02:02:12.015Z,100526.50
2023-05-14T02:02:23.719Z,100522.97
2023-05-14T02:02:35.488Z,100525.47
2023-05-14T02:02:47.280Z,100528.13
2023-05-14T02:02:59.033Z,100526.50
2023-05-14T02:03:10.899Z,100521.16
2023-05-14T02:03:22.635Z,100524.66
2023-05-14T02:03:34.657Z,100519.28
2023-05-14T02:03:46.504Z,100517.63
2023-05-14T02:03:58.245Z,100522.97
2023-05-14T02:04:10.015Z,100520.13
2023-05-14T02:04:21.894Z,100528.13
2023-05-14T02:04:33.632Z,100526.50
2023-05-14T02:04:45.924Z,100522.16
2023-05-14T02:04:57.620Z,100522.16
2023-05-14T02:05:10.992Z,100524.00
2023-05-14T02:05:22.706Z,100526.50
2023-05-14T02:05:34.503Z,100521.16
2023-05-14T02:05:46.192Z,100521.16
2023-05-14T02:05:57.871Z,100520.28
2023-05-14T02:06:09.564Z,100522.97
2023-05-14T02:06:21.205Z,100521.16
2023-05-14T02:06:33.446Z,100524.81
2023-05-14T02:06:46.458Z,100521.16
2023-05-14T02:06:58.114Z,100516.63
2023-05-14T02:07:09.810Z,100522.97
2023-05-14T02:07:21.531Z,100519.69
2023-05-14T02:07:33.258Z,100524.66
2023-05-14T02:07:45.021Z,100522.97
2023-05-14T02:07:56.757Z,100521.16
2023-05-14T02:08:08.575Z,100520.28
2023-05-14T02:08:20.229Z,100524.81
2023-05-14T02:08:33.074Z,100520.28
2023-05-14T02:08:44.773Z,100515.81
2023-05-14T02:08:56.451Z,100518.47
2023-05-14T02:09:08.217Z,100522.97
2023-05-14T02:09:19.911Z,100520.13
2023-05-14T02:09:31.571Z,100523.81
2023-05-14T02:09:43.441Z,100528.13
2023-05-14T02:09:55.120Z,100523.81
2023-05-14T02:10:08.272Z,100517.44
2023-05-14T02:10:20.134Z,100525.47
2023-05-14T02:10:34.747Z,100522.78
2023-05-14T02:10:46.499Z,100525.47
2023-05-14T02:10:58.248Z,100522.78
2023-05-14T02:11:11.033Z,100525.63
2023-05-14T02:11:22.704Z,100526.50
2023-05-14T02:11:34.475Z,100520.28
2023-05-14T02:11:46.323Z,100520.13
2023-05-14T02:11:58.000Z,100530.16
2023-05-14T02:12:10.208Z,100515.16
2023-05-14T02:12:21.861Z,100519.28
2023-05-14T02:12:33.743Z,100514.13
2023-05-14T02:12:45.449Z,100523.81
2023-05-14T02:12:57.241Z,100526.50
2023-05-14T02:13:08.920Z,100519.28
2023-05-14T02:13:20.670Z,100521.97
2023-05-14T02:13:32.356Z,100513.13
2023-05-14T02:13:44.052Z,100522.78
2023-05-14T02:13:55.730Z,100519.28
2023-05-14T02:14:07.365Z,100517.84
2023-05-14T02:14:19.062Z,100521.97
2023-05-14T02:14:30.778Z,100518.47
2023-05-14T02:14:42.503Z,100519.47
2023-05-14T02:14:54.193Z,100517.63
2023-05-14T02:15:06.980Z,100524.66
2023-05-14T02:15:18.822Z,100517.63
2023-05-14T02:15:30.510Z,100520.28
2023-05-14T02:15:42.285Z,100515.81
2023-05-14T02:15:54.174Z,100520.28
2023-05-14T02:16:06.616Z,100521.16
2023-05-14T02:16:19.022Z,100515.81
2023-05-14T02:16:30.745Z,100520.94
2023-05-14T02:16:42.465Z,100521.97
2023-05-14T02:16:54.279Z,100519.47
2023-05-14T02:17:05.996Z,100520.94
2023-05-14T02:17:17.919Z,100521.97
2023-05-14T02:17:29.690Z,100520.13
2023-05-14T02:17:41.487Z,100520.94
2023-05-14T02:17:55.927Z,100523.63
2023-05-14T02:18:07.716Z,100513.78
2023-05-14T02:18:19.470Z,100518.28
2023-05-14T02:18:31.222Z,100522.78
2023-05-14T02:18:43.016Z,100519.28
2023-05-14T02:18:54.715Z,100516.44
2023-05-14T02:19:06.457Z,100517.44
2023-05-14T02:19:18.224Z,100518.47
2023-05-14T02:19:30.869Z,100520.13
2023-05-14T02:19:42.825Z,100527.13
2023-05-14T02:19:54.566Z,100515.97
2023-05-14T02:20:07.597Z,100527.13
2023-05-14T02:20:19.517Z,100519.13
2023-05-14T02:20:31.190Z,100520.94
2023-05-14T02:20:42.906Z,100516.44
2023-05-14T02:20:54.736Z,100525.28
2023-05-14T02:21:07.207Z,100519.13
2023-05-14T02:21:18.872Z,100519.13
2023-05-14T02:21:30.577Z,100521.78
2023-05-14T02:21:42.267Z,100526.28
2023-05-14T02:21:55.506Z,100527.13
2023-05-14T02:22:07.206Z,100519.94
2023-05-14T02:22:19.079Z,100528.13
2023-05-14T02:22:31.158Z,100522.78
2023-05-14T02:22:42.878Z,100524.25
2023-05-14T02:22:54.616Z,100528.97
2023-05-14T02:23:06.302Z,100519.28
2023-05-14T02:23:18.181Z,100525.28
2023-05-14T02:23:59.525Z,100522.63
2023-05-14T02:24:11.218Z,100522.63
2023-05-14T02:24:22.903Z,100525.28
2023-05-14T02:24:34.584Z,100520.28
2023-05-14T02:24:46.313Z,100522.63
2023-05-14T02:24:58.013Z,100524.25
2023-05-14T02:25:10.380Z,100524.47
2023-05-14T02:25:22.162Z,100529.81